createdAt,value
2019-06-27T00:01:03.248Z,80.70
2019-06-27T00:03:30.598Z,80.30
2019-06-27T00:05:57.931Z,80.00
2019-06-27T00:08:25.392Z,80.10
2019-06-27T00:10:52.779Z,79.80
2019-06-27T00:13:20.104Z,79.50
2019-06-27T00:15:47.578Z,79.70
2019-06-27T00:18:15.071Z,79.80
2019-06-27T00:20:42.512Z,80.00
2019-06-27T00:23:10.304Z,80.70
2019-06-27T00:25:37.764Z,81.50
2019-06-27T00:28:08.086Z,82.00
2019-06-27T00:30:35.466Z,81.60
2019-06-27T00:33:02.985Z,81.70
2019-06-27T00:35:30.394Z,81.70
2019-06-27T00:37:57.737Z,81.90
2019-06-27T00:40:25.248Z,82.30
2019-06-27T00:42:52.926Z,82.30
2019-06-27T00:45:20.435Z,82.30
2019-06-27T00:47:47.769Z,81.90
2019-06-27T00:50:15.358Z,81.50
2019-06-27T00:52:42.712Z,81.30
2019-06-27T00:55:10.242Z,81.30
2019-06-27T00:57:37.652Z,81.20
2019-06-27T01:00:06.943Z,81.20
2019-06-27T01:02:34.379Z,81.10
2019-06-27T01:05:02.182Z,81.40
2019-06-27T01:07:29.570Z,81.30
2019-06-27T01:09:56.856Z,81.20
2019-06-27T01:12:24.195Z,81.70
2019-06-27T01:14:51.654Z,81.70
2019-06-27T01:17:18.988Z,81.30
2019-06-27T01:19:46.366Z,81.20
2019-06-27T01:22:13.724Z,81.00
2019-06-27T01:24:41.126Z,80.70
2019-06-27T01:27:08.431Z,80.50
2019-06-27T01:29:35.870Z,80.50
2019-06-27T01:32:03.485Z,80.70
2019-06-27T01:34:30.806Z,81.10
2019-06-27T01:36:58.214Z,82.10
2019-06-27T01:39:25.556Z,82.70
2019-06-27T01:41:52.961Z,82.80
2019-06-27T01:44:40.189Z,83.30
2019-06-27T01:47:07.892Z,83.70
2019-06-27T01:49:35.347Z,83.80
2019-06-27T01:52:02.735Z,83.90
2019-06-27T01:54:30.136Z,83.50
2019-06-27T01:56:57.583Z,83.80
2019-06-27T01:59:24.965Z,84.10
2019-06-27T02:01:52.552Z,83.80
2019-06-27T02:04:20.032Z,83.40
2019-06-27T02:06:47.455Z,83.00
2019-06-27T02:09:14.837Z,83.30
2019-06-27T02:11:42.231Z,83.50
2019-06-27T02:14:09.677Z,83.30
2019-06-27T02:16:37.057Z,83.50
2019-06-27T02:19:04.508Z,83.10
2019-06-27T02:21:32.000Z,83.40
2019-06-27T02:23:59.521Z,84.00
2019-06-27T02:26:26.900Z,83.90
2019-06-27T02:28:54.363Z,83.80
2019-06-27T02:31:21.760Z,83.70
2019-06-27T02:33:49.200Z,83.50
2019-06-27T02:36:16.586Z,83.60
2019-06-27T02:38:44.073Z,83.80
2019-06-27T02:41:11.428Z,84.00
2019-06-27T02:43:38.858Z,83.80
2019-06-27T02:46:06.257Z,83.40
2019-06-27T02:48:33.705Z,83.30
2019-06-27T02:51:01.197Z,83.50
2019-06-27T02:53:28.556Z,84.20
2019-06-27T02:55:56.038Z,84.20
2019-06-27T02:58:30.852Z,84.40
2019-06-27T03:00:52.761Z,84.30
2019-06-27T03:03:20.167Z,84.40
2019-06-27T03:05:47.632Z,84.10
2019-06-27T03:08:15.094Z,84.00
2019-06-27T03:10:42.549Z,83.80
2019-06-27T03:13:10.072Z,83.60
2019-06-27T03:15:37.525Z,83.90
2019-06-27T03:18:04.995Z,84.50
2019-06-27T03:20:32.461Z,84.30
2019-06-27T03:23:01.075Z,84.30
2019-06-27T03:25:28.521Z,84.60
2019-06-27T03:27:55.893Z,84.50
2019-06-27T03:30:23.296Z,84.50
2019-06-27T03:32:50.790Z,84.70
2019-06-27T03:35:18.263Z,84.70
2019-06-27T03:37:45.750Z,84.70
2019-06-27T03:40:14.432Z,84.60
2019-06-27T03:42:41.932Z,84.30
2019-06-27T03:45:14.901Z,84.00
2019-06-27T03:47:38.649Z,84.00
2019-06-27T03:50:06.110Z,83.90
2019-06-27T03:52:33.535Z,84.20
2019-06-27T03:55:00.999Z,84.20
2019-06-27T03:57:28.473Z,84.10
2019-06-27T03:59:55.872Z,84.40
2019-06-27T04:02:23.302Z,84.40
2019-06-27T04:04:50.811Z,84.80
2019-06-27T04:07:18.270Z,84.70
2019-06-27T04:09:45.763Z,84.60
2019-06-27T04:12:13.248Z,84.50
2019-06-27T04:14:40.680Z,84.80
2019-06-27T04:17:08.186Z,84.70
2019-06-27T04:19:35.676Z,85.10
2019-06-27T04:22:03.216Z,85.10
2019-06-27T04:24:30.747Z,85.30
2019-06-27T04:26:58.194Z,85.60
2019-06-27T04:29:33.629Z,85.50
2019-06-27T04:31:54.880Z,85.80
2019-06-27T04:34:22.341Z,85.70
2019-06-27T04:36:49.802Z,85.50
2019-06-27T04:39:17.319Z,85.00
2019-06-27T04:41:44.740Z,84.70
2019-06-27T04:44:12.111Z,85.00
2019-06-27T04:46:39.638Z,85.10
2019-06-27T04:49:12.767Z,84.80
2019-06-27T04:51:36.413Z,84.70
2019-06-27T04:54:04.218Z,84.70
2019-06-27T04:56:31.707Z,84.50
2019-06-27T04:58:59.481Z,84.90
2019-06-27T05:01:26.988Z,84.20
2019-06-27T05:03:54.471Z,83.70
2019-06-27T05:06:21.945Z,84.30
2019-06-27T05:08:49.405Z,84.10
2019-06-27T05:11:16.851Z,84.00
2019-06-27T05:13:44.320Z,84.20
2019-06-27T05:16:11.782Z,84.40
2019-06-27T05:18:39.252Z,84.30
2019-06-27T05:21:06.666Z,84.50
2019-06-27T05:23:34.448Z,84.30
2019-06-27T05:26:01.893Z,84.50
2019-06-27T05:28:29.346Z,85.10
2019-06-27T05:30:56.863Z,85.10
2019-06-27T05:33:24.284Z,85.10
2019-06-27T05:35:52.092Z,84.40
2019-06-27T05:38:19.491Z,84.90
2019-06-27T05:40:47.309Z,84.90
2019-06-27T05:43:14.737Z,85.10
2019-06-27T05:45:42.443Z,84.80
2019-06-27T05:48:09.917Z,84.90
2019-06-27T05:50:37.425Z,84.50
2019-06-27T05:53:04.937Z,84.20
2019-06-27T05:55:32.369Z,84.10
2019-06-27T05:57:59.871Z,83.80
2019-06-27T06:00:29.515Z,84.10
2019-06-27T06:02:56.561Z,83.90
2019-06-27T06:05:24.061Z,83.90
2019-06-27T06:07:51.501Z,83.80
2019-06-27T06:10:18.979Z,83.30
2019-06-27T06:12:46.456Z,82.90
2019-06-27T06:15:13.910Z,82.50
2019-06-27T06:17:41.396Z,82.60
2019-06-27T06:20:09.402Z,82.80
2019-06-27T06:22:37.278Z,81.60
2019-06-27T06:25:05.432Z,81.70
2019-06-27T06:27:32.943Z,81.80
2019-06-27T06:30:00.580Z,81.60
2019-06-27T06:32:28.064Z,81.30
2019-06-27T06:34:55.594Z,81.60
2019-06-27T06:37:23.096Z,81.40
2019-06-27T06:39:50.633Z,81.20
2019-06-27T06:42:18.180Z,81.30
2019-06-27T06:44:45.700Z,81.40
2019-06-27T06:47:13.215Z,81.00
2019-06-27T06:49:40.691Z,80.40
2019-06-27T06:52:08.175Z,80.30
2019-06-27T06:54:35.678Z,80.30
2019-06-27T06:57:03.179Z,80.50
2019-06-27T06:59:30.667Z,78.60
2019-06-27T07:01:58.150Z,77.60
2019-06-27T07:04:26.012Z,77.90
2019-06-27T07:06:53.408Z,77.50
2019-06-27T07:09:20.815Z,76.60
2019-06-27T07:11:48.403Z,76.70
2019-06-27T07:14:15.776Z,77.60
2019-06-27T07:16:43.264Z,76.40
2019-06-27T07:19:10.728Z,76.90
2019-06-27T07:21:38.222Z,78.00
2019-06-27T07:24:05.550Z,77.60
2019-06-27T07:26:33.069Z,77.10
2019-06-27T07:29:00.545Z,76.40
2019-06-27T07:31:28.029Z,76.80
2019-06-27T07:33:55.516Z,77.00
2019-06-27T07:36:22.983Z,76.90
2019-06-27T07:38:50.397Z,76.60
2019-06-27T07:41:17.807Z,76.80
2019-06-27T07:43:45.217Z,77.10
2019-06-27T07:46:24.597Z,77.00
2019-06-27T07:48:42.244Z,76.70
2019-06-27T07:51:09.688Z,75.60
2019-06-27T07:53:37.077Z,73.60
2019-06-27T07:56:04.529Z,74.00
2019-06-27T07:58:31.888Z,75.10
2019-06-27T08:00:59.360Z,75.80
2019-06-27T08:03:26.846Z,75.30
2019-06-27T08:05:54.529Z,75.60
2019-06-27T08:08:22.076Z,75.50
2019-06-27T08:10:49.446Z,75.60
2019-06-27T08:13:16.921Z,75.80
2019-06-27T08:15:44.425Z,76.90
2019-06-27T08:18:11.890Z,74.30
2019-06-27T08:20:39.379Z,73.50
2019-06-27T08:23:06.902Z,74.90
2019-06-27T08:25:34.403Z,74.60
2019-06-27T08:28:01.771Z,75.30
2019-06-27T08:30:29.578Z,75.20
2019-06-27T08:32:57.062Z,73.00
2019-06-27T08:35:24.726Z,74.80
2019-06-27T08:37:52.132Z,73.50
2019-06-27T08:40:20.256Z,73.70
2019-06-27T08:42:47.726Z,71.90
2019-06-27T08:45:15.149Z,71.80
2019-06-27T08:47:42.643Z,72.20
2019-06-27T08:50:11.016Z,73.20
2019-06-27T08:52:38.476Z,73.10
2019-06-27T08:55:06.054Z,72.70
2019-06-27T08:57:33.512Z,73.10
2019-06-27T09:00:00.908Z,71.60
2019-06-27T09:02:28.341Z,72.10
2019-06-27T09:04:55.746Z,72.40
2019-06-27T09:07:23.229Z,71.50
2019-06-27T09:09:50.712Z,71.10
2019-06-27T09:12:18.177Z,71.60
2019-06-27T09:14:45.580Z,70.30
2019-06-27T09:17:13.070Z,71.00
2019-06-27T09:19:40.829Z,70.90
2019-06-27T09:22:08.335Z,68.50
2019-06-27T09:24:35.834Z,69.00
2019-06-27T09:27:03.392Z,69.60
2019-06-27T09:29:30.884Z,68.90
2019-06-27T09:31:58.270Z,69.30
2019-06-27T09:34:25.738Z,69.80
2019-06-27T09:36:53.128Z,70.80
2019-06-27T09:39:21.146Z,69.80
2019-06-27T09:41:48.554Z,70.00
2019-06-27T09:44:16.278Z,69.20
2019-06-27T09:46:43.782Z,70.50
2019-06-27T09:49:11.224Z,69.40
2019-06-27T09:51:38.610Z,70.30
2019-06-27T09:54:06.121Z,71.10
2019-06-27T09:56:33.609Z,69.70
2019-06-27T09:59:01.098Z,69.90
2019-06-27T10:01:28.577Z,69.70
2019-06-27T10:03:56.028Z,69.50
2019-06-27T10:06:26.175Z,68.60
2019-06-27T10:08:52.688Z,67.50
2019-06-27T10:11:20.077Z,67.60
2019-06-27T10:13:47.585Z,69.00
2019-06-27T10:16:15.032Z,65.90
2019-06-27T10:18:42.406Z,67.10
2019-06-27T10:21:09.905Z,66.70
2019-06-27T10:23:37.372Z,67.60
2019-06-27T10:26:04.949Z,66.60
2019-06-27T10:28:32.314Z,66.80
2019-06-27T10:30:59.784Z,66.00
2019-06-27T10:33:27.251Z,64.70
2019-06-27T10:35:54.740Z,63.70
2019-06-27T10:38:22.214Z,62.50
2019-06-27T10:40:49.613Z,65.30
2019-06-27T10:43:17.088Z,62.60
2019-06-27T10:45:44.588Z,63.80
2019-06-27T10:48:12.824Z,64.30
2019-06-27T10:50:40.396Z,64.10
2019-06-27T10:53:07.900Z,65.30
2019-06-27T10:55:35.706Z,64.50
2019-06-27T10:58:03.214Z,62.80
2019-06-27T11:00:32.133Z,64.10
2019-06-27T11:03:14.304Z,62.70
2019-06-27T11:05:29.720Z,61.70
2019-06-27T11:07:57.183Z,58.40
2019-06-27T11:10:24.821Z,59.00
2019-06-27T11:12:52.292Z,57.60
2019-06-27T11:15:19.818Z,57.60
2019-06-27T11:17:47.259Z,60.00
2019-06-27T11:20:17.796Z,57.70
2019-06-27T11:22:46.230Z,58.30
2019-06-27T11:25:14.558Z,58.00
2019-06-27T11:27:42.053Z,59.10
2019-06-27T11:30:10.504Z,57.10
2019-06-27T11:32:38.057Z,57.80
2019-06-27T11:35:06.010Z,58.10
2019-06-27T11:37:33.840Z,56.90
2019-06-27T11:40:01.371Z,56.50
2019-06-27T11:42:30.413Z,57.20
2019-06-27T11:44:57.979Z,52.90
2019-06-27T11:47:28.475Z,54.70
2019-06-27T11:49:56.020Z,54.00
2019-06-27T11:52:26.513Z,53.30
2019-06-27T11:54:54.053Z,52.70
2019-06-27T11:57:22.005Z,53.30
2019-06-27T11:59:49.999Z,49.00
2019-06-27T12:02:17.613Z,48.70
2019-06-27T12:04:45.164Z,46.10
2019-06-27T12:07:12.843Z,43.80
2019-06-27T12:09:40.489Z,40.30
2019-06-27T12:12:07.952Z,38.40
2019-06-27T12:14:35.685Z,37.00
2019-06-27T12:17:03.529Z,35.40
2019-06-27T12:19:31.525Z,34.50
2019-06-27T12:22:00.450Z,34.10
2019-06-27T12:24:28.133Z,33.70
2019-06-27T12:27:09.201Z,32.60
2019-06-27T12:29:36.972Z,31.90
2019-06-27T12:32:04.478Z,31.00
2019-06-27T12:34:32.071Z,28.80
2019-06-27T12:36:59.604Z,30.20
2019-06-27T12:39:27.169Z,30.50
2019-06-27T12:41:55.171Z,31.60
2019-06-27T12:44:25.322Z,32.40
2019-06-27T12:46:52.812Z,32.30
2019-06-27T12:49:44.452Z,31.90
2019-06-27T12:51:54.762Z,31.90
2019-06-27T12:54:23.388Z,31.30
2019-06-27T12:56:50.904Z,31.60
2019-06-27T12:59:18.505Z,31.10
2019-06-27T13:01:46.396Z,31.00
2019-06-27T13:04:23.336Z,30.20
2019-06-27T13:06:45.047Z,30.80
2019-06-27T13:09:12.544Z,30.70
2019-06-27T13:11:40.032Z,30.00
2019-06-27T13:14:07.507Z,29.60
2019-06-27T13:16:35.009Z,28.70
2019-06-27T13:19:04.906Z,28.10
2019-06-27T13:21:32.390Z,29.30
2019-06-27T13:23:59.945Z,31.60
2019-06-27T13:26:27.435Z,33.60
2019-06-27T13:28:54.987Z,34.20
2019-06-27T13:31:22.552Z,34.20
2019-06-27T13:33:50.114Z,36.00
2019-06-27T13:36:18.953Z,36.50
2019-06-27T13:38:47.436Z,34.00
2019-06-27T13:41:15.204Z,35.10
2019-06-27T13:43:42.755Z,33.40
2019-06-27T13:46:10.241Z,33.30
2019-06-27T13:48:40.343Z,32.30
2019-06-27T13:51:07.865Z,30.20
2019-06-27T13:53:35.753Z,31.60
2019-06-27T13:56:03.234Z,30.90
2019-06-27T13:58:30.675Z,31.80
2019-06-27T14:00:58.246Z,32.40
2019-06-27T14:03:25.882Z,32.10
2019-06-27T14:05:53.320Z,33.20
2019-06-27T14:08:20.847Z,33.70
2019-06-27T14:10:48.347Z,33.60
2019-06-27T14:13:15.887Z,35.40
2019-06-27T14:15:43.553Z,35.30
2019-06-27T14:18:11.208Z,36.30
2019-06-27T14:20:40.129Z,36.50
2019-06-27T14:23:07.719Z,36.60
2019-06-27T14:25:35.501Z,36.80
2019-06-27T14:28:03.277Z,36.00
2019-06-27T14:30:30.835Z,35.10
2019-06-27T14:32:58.478Z,35.50
2019-06-27T14:35:25.981Z,36.30
2019-06-27T14:37:53.864Z,39.10
2019-06-27T14:40:22.162Z,37.80
2019-06-27T14:42:49.835Z,36.60
2019-06-27T14:45:18.057Z,37.30
2019-06-27T14:47:45.467Z,35.80
2019-06-27T14:50:13.109Z,36.90
2019-06-27T14:52:40.693Z,36.10
2019-06-27T14:55:08.337Z,36.10
2019-06-27T14:57:35.913Z,35.60
2019-06-27T15:00:04.631Z,33.50
2019-06-27T15:02:32.351Z,33.10
2019-06-27T15:04:59.949Z,31.60
2019-06-27T15:07:27.527Z,32.90
2019-06-27T15:09:55.081Z,31.40
2019-06-27T15:12:22.731Z,30.30
2019-06-27T15:14:51.104Z,32.10
2019-06-27T15:17:20.951Z,31.40
2019-06-27T15:19:48.520Z,32.50
2019-06-27T15:22:16.171Z,33.20
2019-06-27T15:24:44.011Z,32.20
2019-06-27T15:27:11.754Z,32.20
2019-06-27T15:29:39.245Z,31.70
2019-06-27T15:32:07.018Z,32.10
2019-06-27T15:34:35.911Z,30.30
2019-06-27T15:37:05.266Z,30.30
2019-06-27T15:39:32.849Z,30.60
2019-06-27T15:42:00.404Z,29.40
2019-06-27T15:44:28.219Z,30.10
2019-06-27T15:46:55.841Z,32.30
2019-06-27T15:49:23.402Z,34.50
2019-06-27T15:51:51.020Z,37.00
2019-06-27T15:54:18.673Z,37.40
2019-06-27T15:56:46.309Z,40.30
2019-06-27T15:59:13.864Z,42.10
2019-06-27T16:01:41.608Z,43.40
2019-06-27T16:04:09.222Z,44.60
2019-06-27T16:06:37.069Z,45.30
2019-06-27T16:09:05.557Z,46.20
2019-06-27T16:11:33.214Z,47.60
2019-06-27T16:14:00.749Z,48.90
2019-06-27T16:16:28.290Z,47.40
2019-06-27T16:18:55.818Z,50.30
2019-06-27T16:21:23.480Z,51.50
2019-06-27T16:23:51.035Z,51.70
2019-06-27T16:26:18.623Z,50.80
2019-06-27T16:28:46.307Z,51.70
2019-06-27T16:31:14.078Z,50.80
2019-06-27T16:33:41.873Z,51.30
2019-06-27T16:36:24.430Z,51.50
2019-06-27T16:38:38.874Z,52.00
2019-06-27T16:41:06.590Z,52.10
2019-06-27T16:43:34.411Z,52.50
2019-06-27T16:46:02.091Z,51.90
2019-06-27T16:48:30.063Z,52.90
2019-06-27T16:50:57.690Z,52.60
2019-06-27T16:53:25.608Z,52.10
2019-06-27T16:55:53.342Z,52.80
2019-06-27T16:58:21.635Z,53.00
2019-06-27T17:00:49.713Z,53.00
2019-06-27T17:03:23.292Z,53.30
2019-06-27T17:05:51.182Z,53.20
2019-06-27T17:08:18.779Z,53.50
2019-06-27T17:10:46.344Z,53.10
2019-06-27T17:13:14.060Z,53.80
2019-06-27T17:15:41.795Z,54.70
2019-06-27T17:18:09.327Z,53.20
2019-06-27T17:20:37.005Z,54.70
2019-06-27T17:23:05.529Z,54.60
2019-06-27T17:25:33.187Z,54.20
2019-06-27T17:28:00.799Z,55.30
2019-06-27T17:30:28.384Z,54.40
2019-06-27T17:32:57.747Z,54.60
2019-06-27T17:35:25.374Z,55.30
2019-06-27T17:37:52.885Z,56.40
2019-06-27T17:40:21.958Z,56.30
2019-06-27T17:42:49.996Z,55.00
2019-06-27T17:45:17.536Z,56.40
2019-06-27T17:47:45.119Z,55.40
2019-06-27T17:50:13.113Z,56.50
2019-06-27T17:52:40.836Z,56.80
2019-06-27T17:55:08.532Z,56.30
2019-06-27T17:57:36.006Z,55.20
2019-06-27T18:00:05.105Z,55.50
2019-06-27T18:02:33.089Z,56.50
2019-06-27T18:05:00.609Z,57.30
2019-06-27T18:07:28.111Z,57.30
2019-06-27T18:09:55.681Z,56.20
2019-06-27T18:12:23.468Z,57.50
2019-06-27T18:14:51.026Z,58.10
2019-06-27T18:17:32.403Z,58.90
2019-06-27T18:19:48.396Z,59.40
2019-06-27T18:22:16.348Z,59.80
2019-06-27T18:24:46.169Z,59.90
2019-06-27T18:27:16.688Z,59.40
2019-06-27T18:29:47.860Z,59.60
2019-06-27T18:32:13.809Z,59.80
2019-06-27T18:34:41.513Z,59.80
2019-06-27T18:37:09.176Z,59.80
2019-06-27T18:39:37.291Z,59.60
2019-06-27T18:42:04.708Z,59.50
2019-06-27T18:44:32.605Z,59.80
2019-06-27T18:47:00.236Z,58.10
2019-06-27T18:49:28.004Z,57.70
2019-06-27T18:52:00.107Z,58.50
2019-06-27T18:54:28.023Z,58.40
2019-06-27T18:56:55.594Z,58.10
2019-06-27T18:59:23.195Z,56.80
2019-06-27T19:01:50.963Z,57.60
2019-06-27T19:04:18.852Z,56.90
2019-06-27T19:06:46.629Z,57.00
2019-06-27T19:09:14.519Z,56.50
2019-06-27T19:11:42.119Z,55.70
2019-06-27T19:14:09.696Z,55.80
2019-06-27T19:16:37.370Z,55.90
2019-06-27T19:19:07.133Z,55.50
2019-06-27T19:21:57.204Z,54.60
2019-06-27T19:24:38.977Z,54.40
2019-06-27T19:27:06.726Z,54.80
2019-06-27T19:29:34.293Z,54.50
2019-06-27T19:32:01.854Z,54.70
2019-06-27T19:34:30.791Z,55.40
2019-06-27T19:36:58.373Z,55.80
2019-06-27T19:39:25.872Z,55.80
2019-06-27T19:41:56.830Z,55.50
2019-06-27T19:44:22.966Z,55.50
2019-06-27T19:46:50.510Z,56.00
2019-06-27T19:49:18.021Z,55.60
2019-06-27T19:51:45.557Z,56.00
2019-06-27T19:54:13.180Z,55.30
2019-06-27T19:56:40.799Z,55.30
2019-06-27T19:59:08.319Z,55.60
2019-06-27T20:01:35.853Z,55.60
2019-06-27T20:04:03.554Z,55.30
2019-06-27T20:06:31.106Z,55.50
2019-06-27T20:08:58.790Z,55.00
2019-06-27T20:11:26.438Z,55.70
2019-06-27T20:13:54.033Z,55.60
2019-06-27T20:16:21.984Z,55.90
2019-06-27T20:18:49.909Z,55.70
2019-06-27T20:21:17.884Z,55.70
2019-06-27T20:23:45.537Z,55.50
2019-06-27T20:26:13.074Z,56.00
2019-06-27T20:28:40.776Z,55.70
2019-06-27T20:31:09.628Z,55.00
2019-06-27T20:33:37.224Z,54.80
2019-06-27T20:36:04.846Z,54.50
2019-06-27T20:38:35.213Z,54.10
2019-06-27T20:41:02.223Z,54.50
2019-06-27T20:43:29.780Z,53.60
2019-06-27T20:45:57.815Z,54.00
2019-06-27T20:48:25.413Z,54.40
2019-06-27T20:50:52.930Z,53.90
2019-06-27T20:53:20.495Z,54.40
2019-06-27T20:55:48.082Z,55.20
2019-06-27T20:58:15.681Z,55.40
2019-06-27T21:00:43.375Z,55.80
2019-06-27T21:03:11.290Z,56.20
2019-06-27T21:05:38.886Z,55.60
2019-06-27T21:08:06.467Z,55.80
2019-06-27T21:10:34.105Z,56.40
2019-06-27T21:13:01.652Z,57.30
2019-06-27T21:15:29.251Z,57.80
2019-06-27T21:17:57.072Z,58.40
2019-06-27T21:20:25.212Z,58.80
2019-06-27T21:22:52.763Z,59.70
2019-06-27T21:25:20.561Z,60.00
2019-06-27T21:27:47.986Z,59.80
2019-06-27T21:30:16.896Z,59.60
2019-06-27T21:32:48.182Z,60.60
2019-06-27T21:35:14.281Z,61.00
2019-06-27T21:37:42.196Z,61.50
2019-06-27T21:40:10.136Z,61.90
2019-06-27T21:42:37.810Z,62.70
2019-06-27T21:45:05.878Z,62.30
2019-06-27T21:47:34.023Z,62.60
2019-06-27T21:50:01.510Z,62.70
2019-06-27T21:52:29.115Z,62.60
2019-06-27T21:54:56.685Z,62.90
2019-06-27T23:41:31.969Z,65.00
